createdAt,value
2022-10-18T00:02:30.220Z,19.86
2022-10-18T00:07:31.888Z,19.46
2022-10-18T00:12:37.392Z,19.29
2022-10-18T00:17:39.454Z,19.25
2022-10-18T00:22:41.474Z,19.25
2022-10-18T00:27:42.853Z,19.28
2022-10-18T00:32:44.195Z,19.25
2022-10-18T00:37:45.584Z,19.26
2022-10-18T00:42:47.015Z,19.26
2022-10-18T00:48:02.398Z,19.18
2022-10-18T00:53:08.868Z,19.23
2022-10-18T00:58:12.476Z,19.10
2022-10-18T01:03:13.950Z,19.06
2022-10-18T01:08:38.579Z,18.80
2022-10-18T01:13:54.932Z,18.68
2022-10-18T01:19:26.322Z,18.71
2022-10-18T01:30:34.532Z,18.55
2022-10-18T01:35:42.684Z,18.59
2022-10-18T01:40:47.728Z,18.34
2022-10-18T01:45:49.677Z,18.49
2022-10-18T01:50:52.433Z,18.69
2022-10-18T01:56:25.813Z,18.76
2022-10-18T02:01:52.547Z,18.80
2022-10-18T02:07:02.795Z,18.86
2022-10-18T02:12:07.334Z,18.81
2022-10-18T02:17:12.004Z,18.66
2022-10-18T02:22:14.927Z,18.57
2022-10-18T02:27:16.761Z,18.70
2022-10-18T02:32:25.791Z,18.86
2022-10-18T02:37:32.669Z,18.92
2022-10-18T02:42:39.900Z,18.90
2022-10-18T02:47:41.413Z,18.95
2022-10-18T02:52:42.776Z,18.98
2022-10-18T02:57:44.110Z,19.07
2022-10-18T03:02:45.489Z,19.07
2022-10-18T03:07:46.820Z,19.10
2022-10-18T03:12:48.185Z,19.14
2022-10-18T03:17:49.655Z,19.00
2022-10-18T03:22:51.036Z,19.01
2022-10-18T03:27:52.375Z,19.09
2022-10-18T03:32:54.522Z,19.14
2022-10-18T03:37:55.856Z,18.85
2022-10-18T03:42:57.207Z,18.41
2022-10-18T03:47:58.593Z,18.15
2022-10-18T03:52:59.957Z,18.07
2022-10-18T03:58:01.330Z,18.10
2022-10-18T04:03:02.724Z,18.07
2022-10-18T04:08:04.653Z,17.98
2022-10-18T04:13:07.123Z,17.90
2022-10-18T04:18:08.541Z,17.78
2022-10-18T04:23:09.923Z,17.80
2022-10-18T04:28:11.420Z,17.90
2022-10-18T04:33:12.746Z,17.84
2022-10-18T04:38:14.679Z,17.58
2022-10-18T04:43:16.256Z,17.76
2022-10-18T04:48:18.203Z,17.93
2022-10-18T04:53:19.653Z,18.02
2022-10-18T04:58:21.165Z,18.07
2022-10-18T05:03:22.683Z,18.12
2022-10-18T05:08:24.059Z,18.08
2022-10-18T05:13:25.897Z,18.06
2022-10-18T05:18:27.355Z,17.98
2022-10-18T05:23:28.773Z,18.01
2022-10-18T05:28:45.660Z,17.84
2022-10-18T05:33:47.124Z,17.94
2022-10-18T05:38:48.463Z,17.97
2022-10-18T05:43:49.813Z,17.96
2022-10-18T05:48:51.611Z,17.85
2022-10-18T05:58:27.670Z,17.79
2022-10-18T06:03:30.527Z,17.80
2022-10-18T06:08:32.942Z,17.71
2022-10-18T06:13:34.311Z,17.78
2022-10-18T06:18:35.784Z,17.56
2022-10-18T06:23:37.209Z,17.51
2022-10-18T06:28:38.810Z,17.60
2022-10-18T06:33:40.502Z,17.57
2022-10-18T06:38:42.105Z,17.65
2022-10-18T06:43:44.535Z,17.74
2022-10-18T06:48:46.175Z,17.69
2022-10-18T06:53:59.571Z,17.59
2022-10-18T06:59:07.488Z,17.49
2022-10-18T07:04:08.844Z,17.44
2022-10-18T07:09:10.319Z,17.44
2022-10-18T07:14:16.103Z,17.50
2022-10-18T07:19:17.776Z,17.67
2022-10-18T07:24:19.160Z,17.88
2022-10-18T07:29:20.504Z,18.03
2022-10-18T07:34:21.936Z,18.14
2022-10-18T07:39:23.346Z,17.81
2022-10-18T07:44:24.672Z,17.92
2022-10-18T07:49:26.042Z,17.83
2022-10-18T07:54:27.404Z,17.84
2022-10-18T07:59:28.783Z,18.08
2022-10-18T08:04:30.160Z,18.25
2022-10-18T08:09:31.548Z,18.43
2022-10-18T08:14:32.955Z,18.58
2022-10-18T08:19:34.355Z,18.71
2022-10-18T08:24:35.705Z,18.83
2022-10-18T08:29:37.223Z,18.99
2022-10-18T08:39:44.993Z,18.93
2022-10-18T08:44:51.381Z,19.03
2022-10-18T08:50:04.354Z,19.20
2022-10-18T08:55:20.561Z,19.32
2022-10-18T09:00:24.962Z,19.50
2022-10-18T09:05:36.690Z,19.60
2022-10-18T09:10:46.885Z,19.68
2022-10-18T09:16:01.242Z,19.81
2022-10-18T09:21:31.608Z,19.79
2022-10-18T09:26:48.960Z,19.80
2022-10-18T09:32:03.667Z,19.84
2022-10-18T09:37:09.467Z,19.75
2022-10-18T09:42:36.027Z,19.72
2022-10-18T09:47:43.839Z,19.72
2022-10-18T09:52:51.743Z,19.88
2022-10-18T09:58:00.672Z,20.06
2022-10-18T10:03:06.937Z,19.97
2022-10-18T10:08:08.890Z,20.01
2022-10-18T10:13:23.045Z,19.92
2022-10-18T10:18:28.346Z,20.08
2022-10-18T10:23:36.052Z,20.12
2022-10-18T10:28:46.191Z,20.20
2022-10-18T10:33:48.088Z,20.15
2022-10-18T10:39:24.962Z,20.01
2022-10-18T10:44:34.335Z,20.24
2022-10-18T10:49:47.987Z,20.18
2022-10-18T10:54:52.147Z,20.27
2022-10-18T10:59:56.377Z,20.31
2022-10-18T11:05:25.688Z,20.54
2022-10-18T11:10:34.640Z,20.82
2022-10-18T11:15:41.658Z,20.95
2022-10-18T11:21:01.559Z,20.88
2022-10-18T11:26:11.882Z,21.04
2022-10-18T11:31:46.340Z,21.23
2022-10-18T11:37:22.921Z,21.18
2022-10-18T11:42:47.662Z,21.15
2022-10-18T11:48:23.855Z,21.38
2022-10-18T11:53:50.961Z,21.69
2022-10-18T11:59:25.936Z,21.91
2022-10-18T12:04:34.738Z,21.89
2022-10-18T12:09:43.262Z,21.92
2022-10-18T12:14:59.266Z,22.19
2022-10-18T12:20:07.634Z,22.48
2022-10-18T12:25:17.816Z,22.76
2022-10-18T12:30:37.582Z,22.88
2022-10-18T12:36:05.908Z,22.90
2022-10-18T12:41:07.568Z,22.69
2022-10-18T12:46:13.794Z,22.45
2022-10-18T12:51:22.867Z,22.31
2022-10-18T12:56:34.064Z,22.23
2022-10-18T13:01:50.898Z,22.15
2022-10-18T13:07:19.753Z,22.16
2022-10-18T13:12:21.080Z,22.23
2022-10-18T13:17:31.558Z,22.25
2022-10-18T13:22:48.256Z,22.29
2022-10-18T13:28:02.254Z,22.35
2022-10-18T13:33:33.110Z,22.26
2022-10-18T13:38:57.609Z,22.29
2022-10-18T13:44:11.458Z,22.67
2022-10-18T13:49:22.087Z,22.90
2022-10-18T13:54:38.026Z,22.97
2022-10-18T13:59:50.346Z,22.81
2022-10-18T14:05:24.655Z,22.82
2022-10-18T14:11:02.373Z,22.90
2022-10-18T14:16:16.772Z,22.90
2022-10-18T14:21:31.380Z,22.92
2022-10-18T14:26:33.055Z,23.03
2022-10-18T14:31:35.052Z,23.10
2022-10-18T14:36:41.081Z,23.29
2022-10-18T14:41:54.511Z,23.39
2022-10-18T14:47:17.909Z,23.39
2022-10-18T14:52:26.057Z,23.39
2022-10-18T14:57:31.120Z,23.29
2022-10-18T15:02:36.995Z,23.23
2022-10-18T15:07:38.645Z,23.17
2022-10-18T15:13:04.526Z,23.08
2022-10-18T15:18:05.338Z,22.94
2022-10-18T15:23:23.549Z,22.83
2022-10-18T15:28:31.146Z,22.71
2022-10-18T15:33:36.302Z,22.58
2022-10-18T15:38:38.193Z,22.36
2022-10-18T15:43:40.233Z,22.15
2022-10-18T15:48:42.083Z,21.88
2022-10-18T15:53:49.274Z,21.78
2022-10-18T15:58:51.354Z,21.78
2022-10-18T16:08:59.312Z,21.62
2022-10-18T16:14:00.935Z,21.47
2022-10-18T16:19:03.350Z,21.34
2022-10-18T16:24:05.566Z,21.19
2022-10-18T16:29:11.251Z,21.03
2022-10-18T16:34:14.685Z,20.87
2022-10-18T16:39:18.029Z,20.70
2022-10-18T16:44:19.536Z,20.52
2022-10-18T16:49:24.374Z,20.35
2022-10-18T16:54:26.262Z,20.15
2022-10-18T16:59:30.330Z,19.93
2022-10-18T17:04:31.708Z,19.78
2022-10-18T17:09:34.872Z,19.61
2022-10-18T17:14:36.862Z,19.49
2022-10-18T17:19:38.295Z,19.36
2022-10-18T17:24:39.633Z,19.28
2022-10-18T17:29:41.793Z,19.24
2022-10-18T17:34:43.194Z,19.20
2022-10-18T17:39:44.541Z,19.13
2022-10-18T17:44:46.158Z,19.07
2022-10-18T17:49:47.764Z,18.99
2022-10-18T17:54:49.121Z,18.93
2022-10-18T17:59:50.557Z,18.80
2022-10-18T18:04:54.195Z,18.74
2022-10-18T18:09:55.557Z,18.60
2022-10-18T18:14:56.917Z,18.54
2022-10-18T18:19:58.271Z,18.38
2022-10-18T18:24:59.717Z,18.27
2022-10-18T18:30:01.156Z,18.24
2022-10-18T18:35:03.451Z,18.13
2022-10-18T18:40:05.230Z,18.15
2022-10-18T18:45:06.937Z,18.18
2022-10-18T18:50:08.593Z,18.19
2022-10-18T18:55:09.969Z,18.19
2022-10-18T19:00:13.249Z,18.15
2022-10-18T19:05:14.731Z,18.10
2022-10-18T19:10:16.175Z,18.02
2022-10-18T19:15:18.731Z,17.92
2022-10-18T19:20:20.101Z,17.83
2022-10-18T19:25:24.750Z,17.84
2022-10-18T19:30:28.295Z,17.89
2022-10-18T19:35:30.096Z,17.87
2022-10-18T19:40:31.463Z,17.81
2022-10-18T19:45:32.868Z,17.80
2022-10-18T19:50:35.196Z,17.76
2022-10-18T19:55:36.584Z,17.71
2022-10-18T20:00:38.020Z,17.59
2022-10-18T20:05:39.352Z,17.52
2022-10-18T20:10:40.738Z,17.44
2022-10-18T20:15:42.129Z,17.44
2022-10-18T20:20:47.267Z,17.44
2022-10-18T20:25:57.490Z,17.41
2022-10-18T20:31:06.862Z,17.36
2022-10-18T20:36:13.616Z,17.12
2022-10-18T20:41:29.092Z,17.11
2022-10-18T20:46:32.459Z,17.05
2022-10-18T20:51:34.972Z,16.97
2022-10-18T20:56:38.534Z,16.80
2022-10-18T21:01:40.052Z,16.75
2022-10-18T21:06:43.641Z,16.64
2022-10-18T21:11:49.233Z,16.58
2022-10-18T21:16:52.364Z,16.59
2022-10-18T21:21:56.070Z,16.51
2022-10-18T21:26:57.440Z,16.41
2022-10-18T21:31:59.592Z,16.34
2022-10-18T21:37:00.910Z,16.23
2022-10-18T21:42:02.267Z,16.15
2022-10-18T21:47:03.623Z,16.10
2022-10-18T21:52:05.334Z,16.10
2022-10-18T21:57:06.719Z,16.12
2022-10-18T22:02:08.071Z,16.17
2022-10-18T22:07:09.410Z,16.21
2022-10-18T22:12:11.034Z,16.21
2022-10-18T22:17:12.471Z,16.20
2022-10-18T22:22:13.860Z,16.23
2022-10-18T22:27:15.219Z,16.18
2022-10-18T22:32:16.576Z,16.20
2022-10-18T22:37:17.936Z,16.19
2022-10-18T22:42:19.281Z,16.16
2022-10-18T22:47:20.611Z,16.20
2022-10-18T22:52:21.949Z,16.22
2022-10-18T22:57:23.379Z,16.24
2022-10-18T23:02:24.759Z,16.26
2022-10-18T23:07:26.190Z,16.33
2022-10-18T23:12:27.532Z,16.37
2022-10-18T23:17:28.898Z,16.39
2022-10-18T23:22:30.415Z,16.30
2022-10-18T23:27:31.947Z,16.25
2022-10-18T23:32:34.719Z,16.25
2022-10-18T23:37:36.722Z,16.22
2022-10-18T23:42:38.464Z,16.21
2022-10-18T23:47:39.827Z,16.11
2022-10-18T23:52:41.215Z,16.01
2022-10-18T23:57:42.580Z,15.91
